sensor_id;sensor_type;location;lat;lon;timestamp;pressure;altitude;pressure_sealevel;temperature;humidity
1776;BME280;885;42.626;23.200;2023-03-03T00:01:26;166247.22;;;4.07;100.00
1776;BME280;885;42.626;23.200;2023-03-03T00:03:54;166254.09;;;4.09;100.00
1776;BME280;885;42.626;23.200;2023-03-03T00:06:21;166262.34;;;4.12;100.00
1776;BME280;885;42.626;23.200;2023-03-03T00:08:50;166269.22;;;4.15;100.00
1776;BME280;885;42.626;23.200;2023-03-03T00:11:17;166281.53;;;4.19;100.00
1776;BME280;885;42.626;23.200;2023-03-03T00:13:46;166287.00;;;4.21;100.00
1776;BME280;885;42.626;23.200;2023-03-03T00:16:22;166282.91;;;4.20;100.00
1776;BME280;885;42.626;23.200;2023-03-03T00:18:50;166295.25;;;4.24;100.00
1776;BME280;885;42.626;23.200;2023-03-03T00:21:27;166293.88;;;4.24;100.00
1776;BME280;885;42.626;23.200;2023-03-03T00:24:01;166300.75;;;4.26;100.00
1776;BME280;885;42.626;23.200;2023-03-03T00:26:38;166309.00;;;4.29;100.00
1776;BME280;885;42.626;23.200;2023-03-03T00:29:25;166306.25;;;4.28;100.00
1776;BME280;885;42.626;23.200;2023-03-03T00:31:52;166313.13;;;4.31;100.00
1776;BME280;885;42.626;23.200;2023-03-03T00:34:24;166314.50;;;4.31;100.00
1776;BME280;885;42.626;23.200;2023-03-03T00:36:52;166299.38;;;4.26;100.00
1776;BME280;885;42.626;23.200;2023-03-03T00:39:25;166270.53;;;4.15;100.00
1776;BME280;885;42.626;23.200;2023-03-03T00:41:55;166258.19;;;4.11;100.00
1776;BME280;885;42.626;23.200;2023-03-03T00:44:39;166251.38;;;4.08;100.00
1776;BME280;885;42.626;23.200;2023-03-03T00:47:23;166219.78;;;3.96;100.00
1776;BME280;885;42.626;23.200;2023-03-03T00:49:51;166217.06;;;3.95;100.00
1776;BME280;885;42.626;23.200;2023-03-03T00:52:18;166221.16;;;3.97;100.00
1776;BME280;885;42.626;23.200;2023-03-03T00:54:46;166232.16;;;4.01;100.00
1776;BME280;885;42.626;23.200;2023-03-03T00:57:13;166244.50;;;4.06;100.00
1776;BME280;885;42.626;23.200;2023-03-03T00:59:40;166262.34;;;4.12;100.00
1776;BME280;885;42.626;23.200;2023-03-03T01:02:07;166267.84;;;4.14;100.00
1776;BME280;885;42.626;23.200;2023-03-03T01:04:33;166273.31;;;4.16;100.00
1776;BME280;885;42.626;23.200;2023-03-03T01:07:00;166262.34;;;4.12;100.00
1776;BME280;885;42.626;23.200;2023-03-03T01:09:27;166248.59;;;4.07;100.00
1776;BME280;885;42.626;23.200;2023-03-03T01:11:55;166221.16;;;3.97;100.00
1776;BME280;885;42.626;23.200;2023-03-03T01:14:22;166204.72;;;3.91;100.00
1776;BME280;885;42.626;23.200;2023-03-03T01:16:49;166211.59;;;3.93;100.00
1776;BME280;885;42.626;23.200;2023-03-03T01:19:16;166223.88;;;3.98;100.00
1776;BME280;885;42.626;23.200;2023-03-03T01:21:43;166232.16;;;4.01;100.00
1776;BME280;885;42.626;23.200;2023-03-03T01:24:09;166248.59;;;4.07;100.00
1776;BME280;885;42.626;23.200;2023-03-03T01:26:36;166263.72;;;4.13;100.00
1776;BME280;885;42.626;23.200;2023-03-03T01:29:04;166276.03;;;4.17;100.00
1776;BME280;885;42.626;23.200;2023-03-03T01:31:31;166281.53;;;4.19;100.00
1776;BME280;885;42.626;23.200;2023-03-03T01:33:58;166287.00;;;4.21;100.00
1776;BME280;885;42.626;23.200;2023-03-03T01:36:26;166293.88;;;4.24;100.00
1776;BME280;885;42.626;23.200;2023-03-03T01:38:53;166300.75;;;4.26;100.00
1776;BME280;885;42.626;23.200;2023-03-03T01:41:21;166306.25;;;4.28;100.00
1776;BME280;885;42.626;23.200;2023-03-03T01:43:49;166309.00;;;4.29;100.00
1776;BME280;885;42.626;23.200;2023-03-03T01:46:40;166306.25;;;4.28;100.00
1776;BME280;885;42.626;23.200;2023-03-03T01:49:13;166314.50;;;4.31;100.00
1776;BME280;885;42.626;23.200;2023-03-03T01:51:46;166318.59;;;4.33;100.00
1776;BME280;885;42.626;23.200;2023-03-03T01:54:19;166309.00;;;4.29;100.00
1776;BME280;885;42.626;23.200;2023-03-03T01:56:48;166303.53;;;4.27;100.00
1776;BME280;885;42.626;23.200;2023-03-03T01:59:17;166291.16;;;4.23;100.00
1776;BME280;885;42.626;23.200;2023-03-03T02:01:48;166288.41;;;4.22;100.00
1776;BME280;885;42.626;23.200;2023-03-03T02:04:16;166284.28;;;4.20;100.00
1776;BME280;885;42.626;23.200;2023-03-03T02:06:46;166265.06;;;4.13;100.00
1776;BME280;885;42.626;23.200;2023-03-03T02:09:21;166260.97;;;4.12;100.00
1776;BME280;885;42.626;23.200;2023-03-03T02:11:54;166256.84;;;4.10;100.00
1776;BME280;885;42.626;23.200;2023-03-03T02:14:24;166260.97;;;4.12;100.00
1776;BME280;885;42.626;23.200;2023-03-03T02:16:53;166258.19;;;4.11;100.00
1776;BME280;885;42.626;23.200;2023-03-03T02:19:24;166251.38;;;4.08;100.00
1776;BME280;885;42.626;23.200;2023-03-03T02:21:53;166248.59;;;4.07;100.00
1776;BME280;885;42.626;23.200;2023-03-03T02:24:24;166229.44;;;4.00;100.00
1776;BME280;885;42.626;23.200;2023-03-03T02:26:55;166232.16;;;4.01;100.00
1776;BME280;885;42.626;23.200;2023-03-03T02:29:22;166241.72;;;4.04;100.00
1776;BME280;885;42.626;23.200;2023-03-03T02:31:50;166243.13;;;4.05;100.00
1776;BME280;885;42.626;23.200;2023-03-03T02:34:18;166254.09;;;4.09;100.00
1776;BME280;885;42.626;23.200;2023-03-03T02:36:49;166254.09;;;4.09;100.00
1776;BME280;885;42.626;23.200;2023-03-03T02:39:17;166245.88;;;4.06;100.00
1776;BME280;885;42.626;23.200;2023-03-03T02:41:48;166237.63;;;4.03;100.00
1776;BME280;885;42.626;23.200;2023-03-03T02:44:21;166219.78;;;3.96;100.00
1776;BME280;885;42.626;23.200;2023-03-03T02:46:50;166219.78;;;3.96;100.00
1776;BME280;885;42.626;23.200;2023-03-03T02:49:19;166221.16;;;3.97;100.00
1776;BME280;885;42.626;23.200;2023-03-03T02:51:47;166226.66;;;3.99;100.00
1776;BME280;885;42.626;23.200;2023-03-03T02:54:17;166223.88;;;3.98;100.00
1776;BME280;885;42.626;23.200;2023-03-03T02:56:45;166214.31;;;3.94;100.00
1776;BME280;885;42.626;23.200;2023-03-03T02:59:13;166229.44;;;4.00;100.00
1776;BME280;885;42.626;23.200;2023-03-03T03:01:44;166232.16;;;4.01;100.00
1776;BME280;885;42.626;23.200;2023-03-03T03:04:17;166210.19;;;3.93;100.00
1776;BME280;885;42.626;23.200;2023-03-03T03:06:45;166204.72;;;3.91;100.00
1776;BME280;885;42.626;23.200;2023-03-03T03:09:13;166207.44;;;3.92;100.00
1776;BME280;885;42.626;23.200;2023-03-03T03:11:42;166204.72;;;3.91;100.00
1776;BME280;885;42.626;23.200;2023-03-03T03:14:11;166222.56;;;3.97;100.00
1776;BME280;885;42.626;23.200;2023-03-03T03:16:39;166204.72;;;3.91;100.00
1776;BME280;885;42.626;23.200;2023-03-03T03:19:08;166193.75;;;3.87;100.00
1776;BME280;885;42.626;23.200;2023-03-03T03:21:36;166190.97;;;3.86;100.00
1776;BME280;885;42.626;23.200;2023-03-03T03:24:03;166196.47;;;3.88;100.00
1776;BME280;885;42.626;23.200;2023-03-03T03:26:31;166206.09;;;3.91;100.00
1776;BME280;885;42.626;23.200;2023-03-03T03:28:58;166206.09;;;3.91;100.00
1776;BME280;885;42.626;23.200;2023-03-03T03:31:26;166195.13;;;3.87;100.00
1776;BME280;885;42.626;23.200;2023-03-03T03:33:53;166201.94;;;3.90;100.00
1776;BME280;885;42.626;23.200;2023-03-03T03:36:22;166206.09;;;3.91;100.00
1776;BME280;885;42.626;23.200;2023-03-03T03:38:51;166199.22;;;3.89;100.00
1776;BME280;885;42.626;23.200;2023-03-03T03:41:19;166200.63;;;3.89;100.00
1776;BME280;885;42.626;23.200;2023-03-03T03:43:46;166193.75;;;3.87;100.00
1776;BME280;885;42.626;23.200;2023-03-03T03:46:14;166188.25;;;3.85;100.00
1776;BME280;885;42.626;23.200;2023-03-03T03:48:41;166170.41;;;3.78;100.00
1776;BME280;885;42.626;23.200;2023-03-03T03:51:09;166156.69;;;3.73;100.00
1776;BME280;885;42.626;23.200;2023-03-03T03:53:38;166147.09;;;3.70;100.00
1776;BME280;885;42.626;23.200;2023-03-03T03:56:06;166118.28;;;3.59;100.00
1776;BME280;885;42.626;23.200;2023-03-03T03:58:33;166108.69;;;3.56;100.00
1776;BME280;885;42.626;23.200;2023-03-03T04:01:02;166107.31;;;3.55;100.00
1776;BME280;885;42.626;23.200;2023-03-03T04:03:29;166103.22;;;3.54;100.00
1776;BME280;885;42.626;23.200;2023-03-03T04:05:55;166100.44;;;3.53;100.00
1776;BME280;885;42.626;23.200;2023-03-03T04:08:22;166103.22;;;3.54;100.00
1776;BME280;885;42.626;23.200;2023-03-03T04:10:50;166103.22;;;3.54;100.00
1776;BME280;885;42.626;23.200;2023-03-03T04:13:17;166101.81;;;3.53;100.00
1776;BME280;885;42.626;23.200;2023-03-03T04:15:44;166115.50;;;3.58;100.00
1776;BME280;885;42.626;23.200;2023-03-03T04:18:10;166108.69;;;3.56;100.00
1776;BME280;885;42.626;23.200;2023-03-03T04:20:38;166116.91;;;3.59;100.00
1776;BME280;885;42.626;23.200;2023-03-03T04:23:05;166118.28;;;3.59;100.00
1776;BME280;885;42.626;23.200;2023-03-03T04:25:32;166122.38;;;3.61;100.00
1776;BME280;885;42.626;23.200;2023-03-03T04:28:00;166119.66;;;3.60;100.00
1776;BME280;885;42.626;23.200;2023-03-03T04:30:27;166108.69;;;3.56;100.00
1776;BME280;885;42.626;23.200;2023-03-03T04:32:53;166092.25;;;3.50;100.00
1776;BME280;885;42.626;23.200;2023-03-03T04:35:20;166103.22;;;3.54;100.00
1776;BME280;885;42.626;23.200;2023-03-03T04:37:47;166099.06;;;3.52;100.00
1776;BME280;885;42.626;23.200;2023-03-03T04:40:14;166100.44;;;3.53;100.00
1776;BME280;885;42.626;23.200;2023-03-03T04:42:42;166092.25;;;3.50;100.00
1776;BME280;885;42.626;23.200;2023-03-03T04:45:11;166089.47;;;3.49;100.00
1776;BME280;885;42.626;23.200;2023-03-03T04:47:37;166086.72;;;3.48;100.00
1776;BME280;885;42.626;23.200;2023-03-03T04:50:05;166093.56;;;3.50;100.00
1776;BME280;885;42.626;23.200;2023-03-03T04:52:33;166086.72;;;3.48;100.00
1776;BME280;885;42.626;23.200;2023-03-03T04:54:59;166071.66;;;3.42;100.00
1776;BME280;885;42.626;23.200;2023-03-03T04:57:26;166071.66;;;3.42;100.00
1776;BME280;885;42.626;23.200;2023-03-03T04:59:53;166073.03;;;3.43;100.00
1776;BME280;885;42.626;23.200;2023-03-03T05:02:21;166084.00;;;3.47;100.00
1776;BME280;885;42.626;23.200;2023-03-03T05:04:47;166077.13;;;3.44;100.00
1776;BME280;885;42.626;23.200;2023-03-03T05:07:14;166092.25;;;3.50;100.00
1776;BME280;885;42.626;23.200;2023-03-03T05:09:42;166090.84;;;3.49;100.00
1776;BME280;885;42.626;23.200;2023-03-03T05:12:08;166099.06;;;3.52;100.00
1776;BME280;885;42.626;23.200;2023-03-03T05:14:35;166105.94;;;3.55;100.00
1776;BME280;885;42.626;23.200;2023-03-03T05:17:02;166114.19;;;3.58;100.00
1776;BME280;885;42.626;23.200;2023-03-03T05:19:31;166105.94;;;3.55;100.00
1776;BME280;885;42.626;23.200;2023-03-03T05:21:59;166112.78;;;3.57;100.00
1776;BME280;885;42.626;23.200;2023-03-03T05:24:26;166122.38;;;3.61;100.00
1776;BME280;885;42.626;23.200;2023-03-03T05:26:54;166122.38;;;3.61;100.00
1776;BME280;885;42.626;23.200;2023-03-03T05:29:20;166111.41;;;3.57;100.00
1776;BME280;885;42.626;23.200;2023-03-03T05:31:47;166118.28;;;3.59;100.00
1776;BME280;885;42.626;23.200;2023-03-03T05:34:14;166122.38;;;3.61;100.00
1776;BME280;885;42.626;23.200;2023-03-03T05:36:42;166123.75;;;3.61;100.00
1776;BME280;885;42.626;23.200;2023-03-03T05:39:09;166127.88;;;3.63;100.00
1776;BME280;885;42.626;23.200;2023-03-03T05:41:36;166119.66;;;3.60;100.00
1776;BME280;885;42.626;23.200;2023-03-03T05:44:03;166108.69;;;3.56;100.00
1776;BME280;885;42.626;23.200;2023-03-03T05:46:30;166114.19;;;3.58;100.00
1776;BME280;885;42.626;23.200;2023-03-03T05:48:57;166119.66;;;3.60;100.00
1776;BME280;885;42.626;23.200;2023-03-03T05:51:24;166126.53;;;3.62;100.00
1776;BME280;885;42.626;23.200;2023-03-03T05:53:52;166114.19;;;3.58;100.00
1776;BME280;885;42.626;23.200;2023-03-03T05:56:19;166105.94;;;3.55;100.00
1776;BME280;885;42.626;23.200;2023-03-03T05:58:46;166107.31;;;3.55;100.00
1776;BME280;885;42.626;23.200;2023-03-03T06:01:12;166108.69;;;3.56;100.00
1776;BME280;885;42.626;23.200;2023-03-03T06:03:39;166097.72;;;3.52;100.00
1776;BME280;885;42.626;23.200;2023-03-03T06:12:21;166053.81;;;3.36;100.00
1776;BME280;885;42.626;23.200;2023-03-03T06:14:47;166042.84;;;3.32;100.00
1776;BME280;885;42.626;23.200;2023-03-03T06:17:14;166012.66;;;3.20;100.00
1776;BME280;885;42.626;23.200;2023-03-03T06:19:41;166018.19;;;3.22;100.00
1776;BME280;885;42.626;23.200;2023-03-03T06:22:08;166046.94;;;3.33;100.00
1776;BME280;885;42.626;23.200;2023-03-03T06:24:35;166055.19;;;3.36;100.00
1776;BME280;885;42.626;23.200;2023-03-03T06:27:02;166014.03;;;3.21;100.00
1776;BME280;885;42.626;23.200;2023-03-03T06:29:30;166012.66;;;3.20;100.00
1776;BME280;885;42.626;23.200;2023-03-03T06:31:57;166025.00;;;3.25;100.00
1776;BME280;885;42.626;23.200;2023-03-03T06:34:23;166057.97;;;3.37;100.00
1776;BME280;885;42.626;23.200;2023-03-03T06:36:50;166092.25;;;3.50;100.00
1776;BME280;885;42.626;23.200;2023-03-03T06:39:17;166114.19;;;3.58;100.00
1776;BME280;885;42.626;23.200;2023-03-03T06:41:44;166144.31;;;3.69;100.00
1776;BME280;885;42.626;23.200;2023-03-03T06:44:11;166160.81;;;3.75;100.00
1776;BME280;885;42.626;23.200;2023-03-03T06:46:39;166175.91;;;3.80;100.00
1776;BME280;885;42.626;23.200;2023-03-03T06:49:06;166197.84;;;3.88;100.00
1776;BME280;885;42.626;23.200;2023-03-03T06:51:34;166207.44;;;3.92;100.00
1776;BME280;885;42.626;23.200;2023-03-03T06:54:09;166201.94;;;3.90;100.00
1776;BME280;885;42.626;23.200;2023-03-03T06:56:37;166206.09;;;3.91;100.00
1776;BME280;885;42.626;23.200;2023-03-03T06:59:10;166212.91;;;3.94;100.00
1776;BME280;885;42.626;23.200;2023-03-03T07:01:39;166210.19;;;3.93;100.00
1776;BME280;885;42.626;23.200;2023-03-03T07:04:14;166196.47;;;3.88;100.00
1776;BME280;885;42.626;23.200;2023-03-03T07:06:42;166190.97;;;3.86;100.00
1776;BME280;885;42.626;23.200;2023-03-03T07:09:13;166170.41;;;3.78;100.00
1776;BME280;885;42.626;23.200;2023-03-03T07:11:43;166122.38;;;3.61;100.00
1776;BME280;885;42.626;23.200;2023-03-03T07:14:14;166130.63;;;3.64;100.00
1776;BME280;885;42.626;23.200;2023-03-03T07:16:43;166064.78;;;3.40;100.00
1776;BME280;885;42.626;23.200;2023-03-03T07:19:16;166037.38;;;3.30;100.00
1776;BME280;885;42.626;23.200;2023-03-03T07:21:44;166073.03;;;3.43;100.00
1776;BME280;885;42.626;23.200;2023-03-03T07:24:20;166111.41;;;3.57;100.00
1776;BME280;885;42.626;23.200;2023-03-03T07:26:50;166097.72;;;3.52;100.00
1776;BME280;885;42.626;23.200;2023-03-03T07:29:21;166110.03;;;3.56;100.00
1776;BME280;885;42.626;23.200;2023-03-03T07:31:52;166138.84;;;3.67;100.00
1776;BME280;885;42.626;23.200;2023-03-03T07:34:20;166173.13;;;3.79;100.00
1776;BME280;885;42.626;23.200;2023-03-03T07:36:49;166193.75;;;3.87;100.00
1776;BME280;885;42.626;23.200;2023-03-03T07:39:25;166193.75;;;3.87;100.00
1776;BME280;885;42.626;23.200;2023-03-03T07:42:01;166145.72;;;3.69;100.00
1776;BME280;885;42.626;23.200;2023-03-03T07:44:32;166158.06;;;3.74;100.00
1776;BME280;885;42.626;23.200;2023-03-03T07:47:14;166190.97;;;3.86;100.00
1776;BME280;885;42.626;23.200;2023-03-03T07:49:44;166210.19;;;3.93;100.00
1776;BME280;885;42.626;23.200;2023-03-03T07:52:25;166236.25;;;4.02;100.00
1776;BME280;885;42.626;23.200;2023-03-03T07:54:54;166252.69;;;4.09;100.00
1776;BME280;885;42.626;23.200;2023-03-03T07:57:24;166256.84;;;4.10;100.00
1776;BME280;885;42.626;23.200;2023-03-03T07:59:54;166271.94;;;4.16;100.00
1776;BME280;885;42.626;23.200;2023-03-03T08:02:42;166292.50;;;4.23;100.00
1776;BME280;885;42.626;23.200;2023-03-03T08:05:30;166285.69;;;4.21;100.00
1776;BME280;885;42.626;23.200;2023-03-03T08:08:18;166287.00;;;4.21;100.00
1776;BME280;885;42.626;23.200;2023-03-03T08:10:48;166303.53;;;4.27;100.00
1776;BME280;885;42.626;23.200;2023-03-03T08:13:17;166326.81;;;4.36;100.00
1776;BME280;885;42.626;23.200;2023-03-03T08:15:46;166333.69;;;4.38;100.00
1776;BME280;885;42.626;23.200;2023-03-03T08:18:22;166355.63;;;4.46;100.00
1776;BME280;885;42.626;23.200;2023-03-03T08:20:54;166366.59;;;4.50;100.00
1776;BME280;885;42.626;23.200;2023-03-03T08:23:21;166363.88;;;4.49;100.00
1776;BME280;885;42.626;23.200;2023-03-03T08:25:49;166374.88;;;4.53;100.00
1776;BME280;885;42.626;23.200;2023-03-03T08:28:17;166391.34;;;4.59;100.00
1776;BME280;885;42.626;23.200;2023-03-03T08:30:44;166425.66;;;4.72;100.00
1776;BME280;885;42.626;23.200;2023-03-03T08:33:12;166462.75;;;4.86;100.00
1776;BME280;885;42.626;23.200;2023-03-03T08:35:40;166495.69;;;4.98;100.00
1776;BME280;885;42.626;23.200;2023-03-03T08:38:08;166501.19;;;5.00;100.00
1776;BME280;885;42.626;23.200;2023-03-03T08:40:36;166517.66;;;5.06;100.00
1776;BME280;885;42.626;23.200;2023-03-03T08:43:03;166523.16;;;5.08;100.00
1776;BME280;885;42.626;23.200;2023-03-03T08:45:29;166470.97;;;4.89;100.00
1776;BME280;885;42.626;23.200;2023-03-03T08:47:57;166465.47;;;4.87;100.00
1776;BME280;885;42.626;23.200;2023-03-03T08:50:24;166480.59;;;4.92;100.00
1776;BME280;885;42.626;23.200;2023-03-03T08:52:56;166514.94;;;5.05;100.00
1776;BME280;885;42.626;23.200;2023-03-03T08:55:23;166534.13;;;5.12;100.00
1776;BME280;885;42.626;23.200;2023-03-03T08:57:50;166558.88;;;5.21;100.00
1776;BME280;885;42.626;23.200;2023-03-03T09:00:20;166558.88;;;5.21;100.00
1776;BME280;885;42.626;23.200;2023-03-03T09:02:49;166442.13;;;4.78;100.00
1776;BME280;885;42.626;23.200;2023-03-03T09:05:17;166354.31;;;4.46;100.00
1776;BME280;885;42.626;23.200;2023-03-03T09:07:45;166357.00;;;4.47;100.00
1776;BME280;885;42.626;23.200;2023-03-03T09:10:16;166363.88;;;4.49;100.00
1776;BME280;885;42.626;23.200;2023-03-03T09:12:45;166391.34;;;4.59;100.00
1776;BME280;885;42.626;23.200;2023-03-03T09:15:22;166440.78;;;4.77;100.00
1776;BME280;885;42.626;23.200;2023-03-03T09:17:49;166486.09;;;4.94;100.00
1776;BME280;885;42.626;23.200;2023-03-03T09:20:22;166523.16;;;5.08;100.00
1776;BME280;885;42.626;23.200;2023-03-03T09:22:50;166543.78;;;5.15;100.00
1776;BME280;885;42.626;23.200;2023-03-03T09:25:22;166542.38;;;5.15;100.00
1776;BME280;885;42.626;23.200;2023-03-03T09:27:53;166547.88;;;5.17;100.00
1776;BME280;885;42.626;23.200;2023-03-03T09:30:33;166552.00;;;5.18;100.00
1776;BME280;885;42.626;23.200;2023-03-03T09:33:01;166568.47;;;5.24;100.00
1776;BME280;885;42.626;23.200;2023-03-03T09:35:42;166564.34;;;5.23;100.00
1776;BME280;885;42.626;23.200;2023-03-03T09:38:24;166593.19;;;5.33;100.00
1776;BME280;885;42.626;23.200;2023-03-03T09:41:08;166609.69;;;5.39;100.00
1776;BME280;885;42.626;23.200;2023-03-03T09:43:44;166602.81;;;5.37;100.00
1776;BME280;885;42.626;23.200;2023-03-03T09:46:23;166547.88;;;5.17;100.00
1776;BME280;885;42.626;23.200;2023-03-03T09:49:01;166465.47;;;4.87;100.00
1776;BME280;885;42.626;23.200;2023-03-03T09:51:49;166406.47;;;4.65;100.00
1776;BME280;885;42.626;23.200;2023-03-03T09:54:33;166424.28;;;4.71;100.00
1776;BME280;885;42.626;23.200;2023-03-03T09:57:12;166449.00;;;4.80;100.00
1776;BME280;885;42.626;23.200;2023-03-03T09:59:54;166447.63;;;4.80;100.00
1776;BME280;885;42.626;23.200;2023-03-03T10:02:37;166435.25;;;4.75;100.00
1776;BME280;885;42.626;23.200;2023-03-03T10:05:24;166459.97;;;4.84;100.00
1776;BME280;885;42.626;23.200;2023-03-03T10:08:05;166446.28;;;4.79;100.00
1776;BME280;885;42.626;23.200;2023-03-03T10:10:47;166459.97;;;4.84;100.00
1776;BME280;885;42.626;23.200;2023-03-03T10:13:27;166481.94;;;4.93;100.00
1776;BME280;885;42.626;23.200;2023-03-03T10:16:16;166505.28;;;5.01;100.00
1776;BME280;885;42.626;23.200;2023-03-03T10:18:53;166509.44;;;5.03;100.00
1776;BME280;885;42.626;23.200;2023-03-03T10:21:29;166503.91;;;5.01;100.00
1776;BME280;885;42.626;23.200;2023-03-03T10:24:05;166517.66;;;5.06;100.00
1776;BME280;885;42.626;23.200;2023-03-03T10:26:50;166488.81;;;4.95;100.00
1776;BME280;885;42.626;23.200;2023-03-03T10:29:30;166444.88;;;4.79;100.00
1776;BME280;885;42.626;23.200;2023-03-03T10:32:17;166410.56;;;4.66;100.00
1776;BME280;885;42.626;23.200;2023-03-03T10:37:50;166411.97;;;4.67;100.00
1776;BME280;885;42.626;23.200;2023-03-03T10:40:25;166457.25;;;4.83;100.00
1776;BME280;885;42.626;23.200;2023-03-03T10:43:11;166503.91;;;5.01;100.00
1776;BME280;885;42.626;23.200;2023-03-03T10:51:45;166531.41;;;5.11;100.00
1776;BME280;885;42.626;23.200;2023-03-03T10:54:27;166521.75;;;5.07;100.00
1776;BME280;885;42.626;23.200;2023-03-03T10:56:59;166497.06;;;4.98;100.00
1776;BME280;885;42.626;23.200;2023-03-03T10:59:48;166472.34;;;4.89;100.00
1776;BME280;885;42.626;23.200;2023-03-03T11:02:21;166508.06;;;5.02;100.00
1776;BME280;885;42.626;23.200;2023-03-03T11:05:13;166552.00;;;5.18;100.00
1776;BME280;885;42.626;23.200;2023-03-03T11:07:45;166539.63;;;5.14;100.00
1776;BME280;885;42.626;23.200;2023-03-03T11:10:23;166547.88;;;5.17;100.00
1776;BME280;885;42.626;23.200;2023-03-03T11:13:00;166550.59;;;5.18;100.00
1776;BME280;885;42.626;23.200;2023-03-03T11:15:45;166560.25;;;5.21;100.00
1776;BME280;885;42.626;23.200;2023-03-03T11:18:22;166594.59;;;5.34;100.00
1776;BME280;885;42.626;23.200;2023-03-03T11:20:56;166605.56;;;5.38;100.00
1776;BME280;885;42.626;23.200;2023-03-03T11:23:41;166564.34;;;5.23;100.00
1776;BME280;885;42.626;23.200;2023-03-03T11:26:19;166580.84;;;5.29;100.00
1776;BME280;885;42.626;23.200;2023-03-03T11:29:01;166549.28;;;5.17;100.00
1776;BME280;885;42.626;23.200;2023-03-03T11:31:37;166558.88;;;5.21;100.00
1776;BME280;885;42.626;23.200;2023-03-03T11:34:15;166572.56;;;5.26;100.00
1776;BME280;885;42.626;23.200;2023-03-03T11:36:51;166568.47;;;5.24;100.00
1776;BME280;885;42.626;23.200;2023-03-03T11:39:22;166539.63;;;5.14;100.00
1776;BME280;885;42.626;23.200;2023-03-03T11:42:00;166568.47;;;5.24;100.00
1776;BME280;885;42.626;23.200;2023-03-03T11:44:31;166594.59;;;5.34;100.00
1776;BME280;885;42.626;23.200;2023-03-03T11:47:04;166601.41;;;5.36;100.00
1776;BME280;885;42.626;23.200;2023-03-03T11:49:36;166602.81;;;5.37;100.00
1776;BME280;885;42.626;23.200;2023-03-03T11:52:18;166550.59;;;5.18;100.00
1776;BME280;885;42.626;23.200;2023-03-03T11:54:51;166549.28;;;5.17;100.00
1776;BME280;885;42.626;23.200;2023-03-03T11:57:22;166528.63;;;5.10;100.00
1776;BME280;885;42.626;23.200;2023-03-03T11:59:57;166536.91;;;5.13;100.00
1776;BME280;885;42.626;23.200;2023-03-03T12:02:38;166539.63;;;5.14;100.00
1776;BME280;885;42.626;23.200;2023-03-03T12:05:13;166459.97;;;4.84;100.00
1776;BME280;885;42.626;23.200;2023-03-03T12:07:51;166443.50;;;4.78;100.00
1776;BME280;885;42.626;23.200;2023-03-03T12:10:23;166451.78;;;4.81;100.00
1776;BME280;885;42.626;23.200;2023-03-03T12:13:00;166454.50;;;4.82;100.00
1776;BME280;885;42.626;23.200;2023-03-03T12:15:34;70618.47;;;-143.00;100.00
1776;BME280;885;42.626;23.200;2023-03-03T12:18:15;70618.47;;;-143.00;100.00
1776;BME280;885;42.626;23.200;2023-03-03T12:20:52;70618.47;;;-143.00;100.00
1776;BME280;885;42.626;23.200;2023-03-03T12:23:43;70618.47;;;-143.00;100.00
1776;BME280;885;42.626;23.200;2023-03-03T12:26:16;70618.47;;;-143.00;100.00
1776;BME280;885;42.626;23.200;2023-03-03T12:28:49;70618.47;;;-143.00;100.00
1776;BME280;885;42.626;23.200;2023-03-03T12:31:25;70618.47;;;-143.00;100.00
1776;BME280;885;42.626;23.200;2023-03-03T12:33:57;70618.47;;;-143.00;100.00
1776;BME280;885;42.626;23.200;2023-03-03T12:36:41;70618.47;;;-143.00;100.00
1776;BME280;885;42.626;23.200;2023-03-03T12:39:23;70618.47;;;-143.00;100.00
1776;BME280;885;42.626;23.200;2023-03-03T12:42:00;70618.47;;;-143.00;100.00
1776;BME280;885;42.626;23.200;2023-03-03T12:44:34;70618.47;;;-143.00;100.00
1776;BME280;885;42.626;23.200;2023-03-03T12:47:09;70618.47;;;-143.00;100.00
1776;BME280;885;42.626;23.200;2023-03-03T12:49:51;70618.47;;;-143.00;100.00
1776;BME280;885;42.626;23.200;2023-03-03T12:52:28;70618.47;;;-143.00;100.00
1776;BME280;885;42.626;23.200;2023-03-03T12:55:08;70618.47;;;-143.00;100.00
1776;BME280;885;42.626;23.200;2023-03-03T12:57:40;70618.47;;;-143.00;100.00
1776;BME280;885;42.626;23.200;2023-03-03T13:00:22;70618.47;;;-143.00;100.00
1776;BME280;885;42.626;23.200;2023-03-03T13:02:58;70618.47;;;-143.00;100.00
1776;BME280;885;42.626;23.200;2023-03-03T13:05:29;70618.47;;;-143.00;100.00
1776;BME280;885;42.626;23.200;2023-03-03T13:11:06;70618.47;;;-143.00;100.00
1776;BME280;885;42.626;23.200;2023-03-03T13:13:39;70618.47;;;-143.00;100.00
1776;BME280;885;42.626;23.200;2023-03-03T13:16:13;70618.47;;;-143.00;100.00
1776;BME280;885;42.626;23.200;2023-03-03T13:18:50;70618.47;;;-143.00;100.00
1776;BME280;885;42.626;23.200;2023-03-03T13:21:23;70618.47;;;-143.00;100.00
1776;BME280;885;42.626;23.200;2023-03-03T13:23:57;70618.47;;;-143.00;100.00
1776;BME280;885;42.626;23.200;2023-03-03T13:26:33;70618.47;;;-143.00;100.00
1776;BME280;885;42.626;23.200;2023-03-03T13:29:10;70618.47;;;-143.00;100.00
1776;BME280;885;42.626;23.200;2023-03-03T13:31:45;70618.47;;;-143.00;100.00
1776;BME280;885;42.626;23.200;2023-03-03T13:34:22;70618.47;;;-143.00;100.00
1776;BME280;885;42.626;23.200;2023-03-03T13:36:53;70618.47;;;-143.00;100.00
1776;BME280;885;42.626;23.200;2023-03-03T13:39:25;70618.47;;;-143.00;100.00
1776;BME280;885;42.626;23.200;2023-03-03T13:41:58;70618.47;;;-143.00;100.00
1776;BME280;885;42.626;23.200;2023-03-03T13:44:30;70618.47;;;-143.00;100.00
1776;BME280;885;42.626;23.200;2023-03-03T13:47:10;70618.47;;;-143.00;100.00
1776;BME280;885;42.626;23.200;2023-03-03T13:49:46;70618.47;;;-143.00;100.00